KCZT

Dimmit County Airport

Carrizo Springs, Texas, USA
METAR KCZT 172215Z AUTO 14008KT 10SM CLR 37/15 A2993 RMK AO2
Observed Flight Rules
Aug-17 @ 22:15 UTC (21 minutes ago) Visual Flight Rules
Wind Visibility Clouds
140° at 8 knots 10 miles
  • Clear skies
Temperatures Readings
Current 37°C / 99°F
Dewpoint 15°C / 59°F
Humidity 27%
Altimeter 29.93" Hg
Pressure 1014 hPa
Elevation 183
METAR KCZT 172215Z AUTO 14008KT 10SM CLR 37/15 A2993 RMK AO2
Observed Flight Rules
Aug-17 @ 22:15 UTC
(21 minutes ago)
VFR
Wind Visibility
140° at 8 knots 10 miles
Clouds
  • Clear skies
Temperature Dewpoint
37°C / 99°F 15°C / 59°F
Humidity Altimeter Pressure
27% 29.93" Hg 1014 hPa